PWSweather.com
Personal Weather Stations
Station Observations
ISTOCKPO4
Cheadle HulmeGB SK8 6NZ

Cheadle HulmeGB SK8 6NZ

Lat: 53.363783, Lon: -2.1948438

Elevation: 261

Station Type: Davis VP2 with Daytime FARS

http://www.cheadlehulmeweather.co.uk

High Low Average
Temperature 34.2°F1.2°C 28.9°F-1.7°C 31.6°F-0.2°C
Dew Point 27.4°F-2.6°C 24.2°F-4.3°C 26.0°F-3.3°C
Winds 17.0 mph 27.4 kmh 6.0 mph 9.7 kmh 11.0 mph NE17.7 kmh NE
Wind Gusts 35.0 mph56.3 kmh 14.0 mph22.5 kmh 23.0 mph37.0 kmh
Humidity 93% 69% 80%
Pressure 30.04 in1017.3 mb 29.86 in1011.2 mb -
Precipitation 0.03 in0.8 mm - -
Hour Temp Dew Point Humidity Winds Wind Gusts Pressure Precip Precip Rate Daily Precip Total
12:00 AM 29.3°F-1.5°C 25.9°F-3.4°C 87% 13.0 mph NE20.9 kmh NE 24.0 mph38.6 kmh 29.89 in1012.2 mb 0.00 in0.0 mm 0.00 in0.0 mm 0.00 in0.0 mm
12:15 AM 29.3°F-1.5°C 25.9°F-3.4°C 87% 14.0 mph NE22.5 kmh NE 26.0 mph41.8 kmh 29.89 in1012.2 mb 0.00 in0.0 mm 0.00 in0.0 mm 0.00 in0.0 mm
12:30 AM 29.3°F-1.5°C 26.2°F-3.2°C 88% 10.0 mph NE16.1 kmh NE 21.0 mph33.8 kmh 29.89 in1012.2 mb 0.00 in0.0 mm 0.00 in0.0 mm 0.00 in0.0 mm
12:45 AM 29.3°F-1.5°C 26.2°F-3.2°C 88% 10.0 mph NE16.1 kmh NE 17.0 mph27.4 kmh 29.89 in1012.2 mb 0.00 in0.0 mm 0.00 in0.0 mm 0.00 in0.0 mm
01:00 AM 29.5°F-1.4°C 26.6°F-3.0°C 89% 10.0 mph NE16.1 kmh NE 20.0 mph32.2 kmh 29.89 in1012.2 mb 0.00 in0.0 mm 0.00 in0.0 mm 0.00 in0.0 mm
01:15 AM 29.3°F-1.5°C 26.5°F-3.1°C 89% 12.0 mph NE19.3 kmh NE 23.0 mph37.0 kmh 29.89 in1012.2 mb 0.00 in0.0 mm 0.00 in0.0 mm 0.00 in0.0 mm
01:30 AM 29.1°F-1.6°C 26.6°F-3.0°C 90% 10.0 mph NE16.1 kmh NE 19.0 mph30.6 kmh 29.89 in1012.2 mb 0.00 in0.0 mm 0.00 in0.0 mm 0.00 in0.0 mm
01:45 AM 28.9°F-1.7°C 26.6°F-3.0°C 91% 13.0 mph NE20.9 kmh NE 21.0 mph33.8 kmh 29.88 in1011.9 mb 0.00 in0.0 mm 0.00 in0.0 mm 0.00 in0.0 mm
02:00 AM 28.9°F-1.7°C 26.9°F-2.8°C 92% 12.0 mph NE19.3 kmh NE 23.0 mph37.0 kmh 29.88 in1011.9 mb 0.00 in0.0 mm 0.00 in0.0 mm 0.00 in0.0 mm
02:15 AM 28.9°F-1.7°C 26.9°F-2.8°C 92% 12.0 mph NE19.3 kmh NE 28.0 mph45.1 kmh 29.87 in1011.5 mb 0.00 in0.0 mm 0.00 in0.0 mm 0.00 in0.0 mm
02:30 AM 28.9°F-1.7°C 27.2°F-2.7°C 93% 9.0 mph NE14.5 kmh NE 19.0 mph30.6 kmh 29.87 in1011.5 mb 0.00 in0.0 mm 0.00 in0.0 mm 0.00 in0.0 mm
02:45 AM 28.9°F-1.7°C 27.2°F-2.7°C 93% 9.0 mph NE14.5 kmh NE 16.0 mph25.7 kmh 29.87 in1011.5 mb 0.00 in0.0 mm 0.00 in0.0 mm 0.00 in0.0 mm
03:00 AM 28.9°F-1.7°C 27.2°F-2.7°C 93% 7.0 mph NE11.3 kmh NE 15.0 mph24.1 kmh 29.87 in1011.5 mb 0.00 in0.0 mm 0.00 in0.0 mm 0.00 in0.0 mm
03:15 AM 28.9°F-1.7°C 27.2°F-2.7°C 93% 7.0 mph NE11.3 kmh NE 14.0 mph22.5 kmh 29.86 in1011.2 mb 0.00 in0.0 mm 0.00 in0.0 mm 0.00 in0.0 mm
03:30 AM 29.1°F-1.6°C 27.3°F-2.6°C 93% 9.0 mph NE14.5 kmh NE 19.0 mph30.6 kmh 29.86 in1011.2 mb 0.00 in0.0 mm 0.00 in0.0 mm 0.00 in0.0 mm
03:45 AM 29.5°F-1.4°C 27.4°F-2.6°C 92% 12.0 mph ENE19.3 kmh ENE 24.0 mph38.6 kmh 29.86 in1011.2 mb 0.00 in0.0 mm 0.00 in0.0 mm 0.00 in0.0 mm
04:00 AM 29.5°F-1.4°C 27.4°F-2.6°C 92% 11.0 mph NE17.7 kmh NE 21.0 mph33.8 kmh 29.86 in1011.2 mb 0.00 in0.0 mm 0.00 in0.0 mm 0.00 in0.0 mm
04:15 AM 29.3°F-1.5°C 27.3°F-2.6°C 92% 10.0 mph ENE16.1 kmh ENE 17.0 mph27.4 kmh 29.86 in1011.2 mb 0.00 in0.0 mm 0.00 in0.0 mm 0.00 in0.0 mm
04:30 AM 29.5°F-1.4°C 27.4°F-2.6°C 92% 11.0 mph NE17.7 kmh NE 23.0 mph37.0 kmh 29.86 in1011.2 mb 0.00 in0.0 mm 0.00 in0.0 mm 0.00 in0.0 mm
04:45 AM 29.7°F-1.3°C 27.4°F-2.6°C 91% 11.0 mph ENE17.7 kmh ENE 24.0 mph38.6 kmh 29.86 in1011.2 mb 0.00 in0.0 mm 0.00 in0.0 mm 0.00 in0.0 mm
05:00 AM 29.5°F-1.4°C 27.2°F-2.7°C 91% 10.0 mph NE16.1 kmh NE 22.0 mph35.4 kmh 29.87 in1011.5 mb 0.00 in0.0 mm 0.00 in0.0 mm 0.00 in0.0 mm
05:15 AM 29.5°F-1.4°C 27.2°F-2.7°C 91% 7.0 mph NE11.3 kmh NE 14.0 mph22.5 kmh 29.87 in1011.5 mb 0.00 in0.0 mm 0.00 in0.0 mm 0.00 in0.0 mm
05:30 AM 29.3°F-1.5°C 27.0°F-2.8°C 91% 8.0 mph NE12.9 kmh NE 17.0 mph27.4 kmh 29.88 in1011.9 mb 0.00 in0.0 mm 0.00 in0.0 mm 0.00 in0.0 mm
05:45 AM 29.3°F-1.5°C 27.3°F-2.6°C 92% 7.0 mph NE11.3 kmh NE 15.0 mph24.1 kmh 29.88 in1011.9 mb 0.00 in0.0 mm 0.00 in0.0 mm 0.00 in0.0 mm
06:00 AM 29.5°F-1.4°C 27.4°F-2.6°C 92% 6.0 mph NE9.7 kmh NE 14.0 mph22.5 kmh 29.89 in1012.2 mb 0.00 in0.0 mm 0.00 in0.0 mm 0.00 in0.0 mm
06:15 AM 29.5°F-1.4°C 27.4°F-2.6°C 92% 8.0 mph NE12.9 kmh NE 19.0 mph30.6 kmh 29.90 in1012.5 mb 0.00 in0.0 mm 0.00 in0.0 mm 0.00 in0.0 mm
06:30 AM 29.5°F-1.4°C 27.4°F-2.6°C 92% 9.0 mph NE14.5 kmh NE 22.0 mph35.4 kmh 29.90 in1012.5 mb 0.00 in0.0 mm 0.00 in0.0 mm 0.00 in0.0 mm
06:45 AM 29.7°F-1.3°C 27.4°F-2.6°C 91% 9.0 mph NE14.5 kmh NE 18.0 mph29.0 kmh 29.90 in1012.5 mb 0.00 in0.0 mm 0.00 in0.0 mm 0.00 in0.0 mm
07:00 AM 29.7°F-1.3°C 27.1°F-2.7°C 90% 9.0 mph NE14.5 kmh NE 19.0 mph30.6 kmh 29.90 in1012.5 mb 0.00 in0.0 mm 0.00 in0.0 mm 0.00 in0.0 mm
07:15 AM 29.8°F-1.2°C 27.3°F-2.6°C 90% 11.0 mph NE17.7 kmh NE 22.0 mph35.4 kmh 29.91 in1012.9 mb 0.00 in0.0 mm 0.00 in0.0 mm 0.00 in0.0 mm
07:30 AM 29.8°F-1.2°C 27.0°F-2.8°C 89% 10.0 mph NE16.1 kmh NE 21.0 mph33.8 kmh 29.91 in1012.9 mb 0.00 in0.0 mm 0.00 in0.0 mm 0.00 in0.0 mm
07:45 AM 30.0°F-1.1°C 26.9°F-2.8°C 88% 11.0 mph NE17.7 kmh NE 30.0 mph48.3 kmh 29.91 in1012.9 mb 0.00 in0.0 mm 0.00 in0.0 mm 0.00 in0.0 mm
08:00 AM 30.2°F-1.0°C 26.8°F-2.9°C 87% 8.0 mph NE12.9 kmh NE 23.0 mph37.0 kmh 29.91 in1012.9 mb 0.00 in0.0 mm 0.00 in0.0 mm 0.00 in0.0 mm
08:15 AM 30.6°F-0.8°C 26.9°F-2.8°C 86% 10.0 mph NE16.1 kmh NE 19.0 mph30.6 kmh 29.92 in1013.2 mb 0.00 in0.0 mm 0.00 in0.0 mm 0.00 in0.0 mm
08:30 AM 30.7°F-0.7°C 26.5°F-3.1°C 84% 6.0 mph NE9.7 kmh NE 16.0 mph25.7 kmh 29.92 in1013.2 mb 0.00 in0.0 mm 0.00 in0.0 mm 0.00 in0.0 mm
08:45 AM 31.1°F-0.5°C 26.5°F-3.1°C 83% 9.0 mph NE14.5 kmh NE 20.0 mph32.2 kmh 29.92 in1013.2 mb 0.00 in0.0 mm 0.00 in0.0 mm 0.00 in0.0 mm
09:00 AM 31.6°F-0.2°C 26.8°F-2.9°C 82% 10.0 mph ENE16.1 kmh ENE 21.0 mph33.8 kmh 29.93 in1013.5 mb 0.00 in0.0 mm 0.00 in0.0 mm 0.00 in0.0 mm
09:15 AM 32.0°F0.0°C 26.8°F-2.9°C 81% 11.0 mph ENE17.7 kmh ENE 27.0 mph43.5 kmh 29.93 in1013.5 mb 0.00 in0.0 mm 0.00 in0.0 mm 0.00 in0.0 mm
09:30 AM 32.2°F0.1°C 26.7°F-2.9°C 80% 12.0 mph NE19.3 kmh NE 22.0 mph35.4 kmh 29.94 in1013.9 mb 0.00 in0.0 mm 0.00 in0.0 mm 0.00 in0.0 mm
09:45 AM 32.2°F0.1°C 26.1°F-3.3°C 78% 11.0 mph ENE17.7 kmh ENE 27.0 mph43.5 kmh 29.95 in1014.2 mb 0.00 in0.0 mm 0.00 in0.0 mm 0.00 in0.0 mm
10:00 AM 32.4°F0.2°C 26.0°F-3.3°C 77% 12.0 mph ENE19.3 kmh ENE 24.0 mph38.6 kmh 29.95 in1014.2 mb 0.00 in0.0 mm 0.00 in0.0 mm 0.00 in0.0 mm
10:15 AM 32.4°F0.2°C 26.0°F-3.3°C 77% 15.0 mph NE24.1 kmh NE 29.0 mph46.7 kmh 29.95 in1014.2 mb 0.00 in0.0 mm 0.00 in0.0 mm 0.00 in0.0 mm
10:30 AM 32.4°F0.2°C 26.3°F-3.2°C 78% 17.0 mph ENE27.4 kmh ENE 29.0 mph46.7 kmh 29.95 in1014.2 mb 0.00 in0.0 mm 0.00 in0.0 mm 0.00 in0.0 mm
10:45 AM 32.2°F0.1°C 26.4°F-3.1°C 79% 14.0 mph ENE22.5 kmh ENE 26.0 mph41.8 kmh 29.96 in1014.6 mb 0.00 in0.0 mm 0.00 in0.0 mm 0.00 in0.0 mm
11:00 AM 32.5°F0.3°C 26.1°F-3.3°C 77% 15.0 mph E24.1 kmh E 26.0 mph41.8 kmh 29.96 in1014.6 mb 0.00 in0.0 mm 0.00 in0.0 mm 0.00 in0.0 mm
11:15 AM 32.5°F0.3°C 27.1°F-2.7°C 80% 13.0 mph ENE20.9 kmh ENE 21.0 mph33.8 kmh 29.95 in1014.2 mb 0.00 in0.0 mm 0.00 in0.0 mm 0.00 in0.0 mm
11:30 AM 32.7°F0.4°C 26.9°F-2.8°C 79% 14.0 mph ENE22.5 kmh ENE 25.0 mph40.2 kmh 29.95 in1014.2 mb 0.00 in0.0 mm 0.00 in0.0 mm 0.00 in0.0 mm
11:45 AM 32.9°F0.5°C 26.2°F-3.2°C 76% 15.0 mph E24.1 kmh E 32.0 mph51.5 kmh 29.96 in1014.6 mb 0.00 in0.0 mm 0.00 in0.0 mm 0.00 in0.0 mm
12:00 PM 33.4°F0.8°C 25.7°F-3.5°C 73% 15.0 mph E24.1 kmh E 27.0 mph43.5 kmh 29.95 in1014.2 mb 0.00 in0.0 mm 0.00 in0.0 mm 0.00 in0.0 mm
12:15 PM 33.4°F0.8°C 25.7°F-3.5°C 73% 17.0 mph ENE27.4 kmh ENE 35.0 mph56.3 kmh 29.95 in1014.2 mb 0.01 in0.3 mm 0.04 in1.0 mm 0.01 in0.3 mm
12:30 PM 33.4°F0.8°C 26.0°F-3.3°C 74% 14.0 mph ENE22.5 kmh ENE 35.0 mph56.3 kmh 29.96 in1014.6 mb 0.01 in0.3 mm 0.00 in0.0 mm 0.01 in0.3 mm
12:45 PM 34.0°F1.1°C 26.2°F-3.2°C 73% 11.0 mph ENE17.7 kmh ENE 22.0 mph35.4 kmh 29.96 in1014.6 mb 0.01 in0.3 mm 0.00 in0.0 mm 0.01 in0.3 mm
01:00 PM 34.2°F1.2°C 26.1°F-3.3°C 72% 13.0 mph ENE20.9 kmh ENE 25.0 mph40.2 kmh 29.95 in1014.2 mb 0.03 in0.8 mm 0.03 in0.8 mm 0.03 in0.8 mm
01:15 PM 33.6°F0.9°C 26.5°F-3.1°C 75% 13.0 mph NE20.9 kmh NE 27.0 mph43.5 kmh 29.96 in1014.6 mb 0.02 in0.5 mm 0.00 in0.0 mm 0.03 in0.8 mm
01:30 PM 33.8°F1.0°C 26.1°F-3.3°C 73% 11.0 mph ENE17.7 kmh ENE 30.0 mph48.3 kmh 29.95 in1014.2 mb 0.02 in0.5 mm 0.00 in0.0 mm 0.03 in0.8 mm
01:45 PM 33.3°F0.7°C 25.5°F-3.6°C 73% 11.0 mph ENE17.7 kmh ENE 26.0 mph41.8 kmh 29.96 in1014.6 mb 0.02 in0.5 mm 0.00 in0.0 mm 0.03 in0.8 mm
02:00 PM 33.4°F0.8°C 25.4°F-3.7°C 72% 11.0 mph ENE17.7 kmh ENE 23.0 mph37.0 kmh 29.96 in1014.6 mb 0.00 in0.0 mm 0.00 in0.0 mm 0.03 in0.8 mm
02:15 PM 33.4°F0.8°C 24.7°F-4.1°C 70% 12.0 mph NE19.3 kmh NE 27.0 mph43.5 kmh 29.96 in1014.6 mb 0.00 in0.0 mm 0.00 in0.0 mm 0.03 in0.8 mm
02:30 PM 33.4°F0.8°C 25.0°F-3.9°C 71% 12.0 mph NE19.3 kmh NE 31.0 mph49.9 kmh 29.96 in1014.6 mb 0.00 in0.0 mm 0.00 in0.0 mm 0.03 in0.8 mm
02:45 PM 33.4°F0.8°C 25.0°F-3.9°C 71% 12.0 mph NE19.3 kmh NE 30.0 mph48.3 kmh 29.96 in1014.6 mb 0.00 in0.0 mm 0.00 in0.0 mm 0.03 in0.8 mm
03:00 PM 33.4°F0.8°C 25.4°F-3.7°C 72% 9.0 mph ENE14.5 kmh ENE 24.0 mph38.6 kmh 29.96 in1014.6 mb 0.00 in0.0 mm 0.00 in0.0 mm 0.03 in0.8 mm
03:15 PM 33.6°F0.9°C 24.9°F-3.9°C 70% 10.0 mph NE16.1 kmh NE 19.0 mph30.6 kmh 29.97 in1014.9 mb 0.00 in0.0 mm 0.00 in0.0 mm 0.03 in0.8 mm
03:30 PM 33.4°F0.8°C 24.7°F-4.1°C 70% 14.0 mph ENE22.5 kmh ENE 26.0 mph41.8 kmh 29.97 in1014.9 mb 0.00 in0.0 mm 0.00 in0.0 mm 0.03 in0.8 mm
03:45 PM 33.3°F0.7°C 24.9°F-3.9°C 71% 12.0 mph NE19.3 kmh NE 26.0 mph41.8 kmh 29.97 in1014.9 mb 0.00 in0.0 mm 0.00 in0.0 mm 0.03 in0.8 mm
04:00 PM 33.1°F0.6°C 24.7°F-4.1°C 71% 12.0 mph NE19.3 kmh NE 23.0 mph37.0 kmh 29.96 in1014.6 mb 0.00 in0.0 mm 0.00 in0.0 mm 0.03 in0.8 mm
04:15 PM 33.3°F0.7°C 24.2°F-4.3°C 69% 12.0 mph ENE19.3 kmh ENE 27.0 mph43.5 kmh 29.97 in1014.9 mb 0.00 in0.0 mm 0.00 in0.0 mm 0.03 in0.8 mm
04:30 PM 33.4°F0.8°C 24.7°F-4.1°C 70% 10.0 mph ENE16.1 kmh ENE 19.0 mph30.6 kmh 29.97 in1014.9 mb 0.00 in0.0 mm 0.00 in0.0 mm 0.03 in0.8 mm
04:45 PM 33.3°F0.7°C 24.9°F-3.9°C 71% 11.0 mph ENE17.7 kmh ENE 21.0 mph33.8 kmh 29.97 in1014.9 mb 0.00 in0.0 mm 0.00 in0.0 mm 0.03 in0.8 mm
05:00 PM 33.3°F0.7°C 24.9°F-3.9°C 71% 8.0 mph NE12.9 kmh NE 18.0 mph29.0 kmh 29.98 in1015.2 mb 0.00 in0.0 mm 0.00 in0.0 mm 0.03 in0.8 mm
05:15 PM 32.9°F0.5°C 24.9°F-3.9°C 72% 12.0 mph NE19.3 kmh NE 20.0 mph32.2 kmh 29.98 in1015.2 mb 0.00 in0.0 mm 0.00 in0.0 mm 0.03 in0.8 mm
05:30 PM 32.7°F0.4°C 24.7°F-4.1°C 72% 11.0 mph NE17.7 kmh NE 21.0 mph33.8 kmh 29.98 in1015.2 mb 0.00 in0.0 mm 0.00 in0.0 mm 0.03 in0.8 mm
05:45 PM 32.7°F0.4°C 25.0°F-3.9°C 73% 12.0 mph NE19.3 kmh NE 22.0 mph35.4 kmh 29.99 in1015.6 mb 0.00 in0.0 mm 0.00 in0.0 mm 0.03 in0.8 mm
06:00 PM 32.5°F0.3°C 25.2°F-3.8°C 74% 11.0 mph NE17.7 kmh NE 22.0 mph35.4 kmh 29.99 in1015.6 mb 0.00 in0.0 mm 0.00 in0.0 mm 0.03 in0.8 mm
06:15 PM 32.4°F0.2°C 25.3°F-3.7°C 75% 10.0 mph NE16.1 kmh NE 19.0 mph30.6 kmh 29.99 in1015.6 mb 0.00 in0.0 mm 0.00 in0.0 mm 0.03 in0.8 mm
06:30 PM 32.4°F0.2°C 25.3°F-3.7°C 75% 7.0 mph ENE11.3 kmh ENE 23.0 mph37.0 kmh 30.00 in1015.9 mb 0.00 in0.0 mm 0.00 in0.0 mm 0.03 in0.8 mm
06:45 PM 32.4°F0.2°C 25.0°F-3.9°C 74% 10.0 mph ENE16.1 kmh ENE 21.0 mph33.8 kmh 30.00 in1015.9 mb 0.00 in0.0 mm 0.00 in0.0 mm 0.03 in0.8 mm
07:00 PM 32.2°F0.1°C 25.1°F-3.8°C 75% 10.0 mph E16.1 kmh E 19.0 mph30.6 kmh 30.00 in1015.9 mb 0.00 in0.0 mm 0.00 in0.0 mm 0.03 in0.8 mm
07:15 PM 32.2°F0.1°C 25.1°F-3.8°C 75% 11.0 mph ENE17.7 kmh ENE 21.0 mph33.8 kmh 30.00 in1015.9 mb 0.00 in0.0 mm 0.00 in0.0 mm 0.03 in0.8 mm
07:30 PM 32.4°F0.2°C 25.3°F-3.7°C 75% 11.0 mph ENE17.7 kmh ENE 24.0 mph38.6 kmh 30.01 in1016.3 mb 0.00 in0.0 mm 0.00 in0.0 mm 0.03 in0.8 mm
07:45 PM 32.4°F0.2°C 25.0°F-3.9°C 74% 12.0 mph ENE19.3 kmh ENE 23.0 mph37.0 kmh 30.01 in1016.3 mb 0.00 in0.0 mm 0.00 in0.0 mm 0.03 in0.8 mm
08:00 PM 32.4°F0.2°C 25.0°F-3.9°C 74% 12.0 mph ENE19.3 kmh ENE 22.0 mph35.4 kmh 30.01 in1016.3 mb 0.00 in0.0 mm 0.00 in0.0 mm 0.03 in0.8 mm
08:15 PM 32.4°F0.2°C 25.0°F-3.9°C 74% 14.0 mph ENE22.5 kmh ENE 26.0 mph41.8 kmh 30.00 in1015.9 mb 0.00 in0.0 mm 0.00 in0.0 mm 0.03 in0.8 mm
08:30 PM 32.5°F0.3°C 24.8°F-4.0°C 73% 12.0 mph ENE19.3 kmh ENE 23.0 mph37.0 kmh 30.00 in1015.9 mb 0.00 in0.0 mm 0.00 in0.0 mm 0.03 in0.8 mm
08:45 PM 32.5°F0.3°C 24.8°F-4.0°C 73% 13.0 mph ENE20.9 kmh ENE 22.0 mph35.4 kmh 30.01 in1016.3 mb 0.00 in0.0 mm 0.00 in0.0 mm 0.03 in0.8 mm
09:00 PM 32.5°F0.3°C 24.8°F-4.0°C 73% 11.0 mph ENE17.7 kmh ENE 22.0 mph35.4 kmh 30.02 in1016.6 mb 0.00 in0.0 mm 0.00 in0.0 mm 0.03 in0.8 mm
09:15 PM 32.5°F0.3°C 24.8°F-4.0°C 73% 10.0 mph ENE16.1 kmh ENE 24.0 mph38.6 kmh 30.01 in1016.3 mb 0.00 in0.0 mm 0.00 in0.0 mm 0.03 in0.8 mm
09:30 PM 32.7°F0.4°C 24.7°F-4.1°C 72% 11.0 mph ENE17.7 kmh ENE 24.0 mph38.6 kmh 30.02 in1016.6 mb 0.00 in0.0 mm 0.00 in0.0 mm 0.03 in0.8 mm
09:45 PM 32.7°F0.4°C 25.0°F-3.9°C 73% 12.0 mph ENE19.3 kmh ENE 24.0 mph38.6 kmh 30.02 in1016.6 mb 0.00 in0.0 mm 0.00 in0.0 mm 0.03 in0.8 mm
10:00 PM 32.7°F0.4°C 25.0°F-3.9°C 73% 8.0 mph ENE12.9 kmh ENE 17.0 mph27.4 kmh 30.02 in1016.6 mb 0.00 in0.0 mm 0.00 in0.0 mm 0.03 in0.8 mm
10:15 PM 32.9°F0.5°C 25.2°F-3.8°C 73% 10.0 mph ENE16.1 kmh ENE 20.0 mph32.2 kmh 30.02 in1016.6 mb 0.00 in0.0 mm 0.00 in0.0 mm 0.03 in0.8 mm
10:30 PM 32.7°F0.4°C 25.0°F-3.9°C 73% 7.0 mph ENE11.3 kmh ENE 17.0 mph27.4 kmh 30.02 in1016.6 mb 0.00 in0.0 mm 0.00 in0.0 mm 0.03 in0.8 mm
10:45 PM 32.7°F0.4°C 25.0°F-3.9°C 73% 12.0 mph ENE19.3 kmh ENE 24.0 mph38.6 kmh 30.02 in1016.6 mb 0.00 in0.0 mm 0.00 in0.0 mm 0.03 in0.8 mm
11:00 PM 32.9°F0.5°C 25.2°F-3.8°C 73% 12.0 mph ENE19.3 kmh ENE 26.0 mph41.8 kmh 30.02 in1016.6 mb 0.00 in0.0 mm 0.00 in0.0 mm 0.03 in0.8 mm
11:15 PM 32.9°F0.5°C 25.2°F-3.8°C 73% 13.0 mph NE20.9 kmh NE 24.0 mph38.6 kmh 30.02 in1016.6 mb 0.00 in0.0 mm 0.00 in0.0 mm 0.03 in0.8 mm
11:30 PM 33.1°F0.6°C 25.4°F-3.7°C 73% 13.0 mph ENE20.9 kmh ENE 25.0 mph40.2 kmh 30.03 in1016.9 mb 0.00 in0.0 mm 0.00 in0.0 mm 0.03 in0.8 mm
11:45 PM 33.1°F0.6°C 25.4°F-3.7°C 73% 12.0 mph NE19.3 kmh NE 20.0 mph32.2 kmh 30.04 in1017.3 mb 0.00 in0.0 mm 0.00 in0.0 mm 0.03 in0.8 mm